createdAt,value
2023-03-06T00:00:49.301Z,0.00
2023-03-06T00:03:17.418Z,0.00
2023-03-06T00:05:44.909Z,0.00
2023-03-06T00:08:12.826Z,0.00
2023-03-06T00:10:40.942Z,0.00
2023-03-06T00:13:11.841Z,-0.10
2023-03-06T00:15:39.188Z,-0.10
2023-03-06T00:18:07.471Z,-0.10
2023-03-06T00:20:35.620Z,-0.10
2023-03-06T00:23:03.090Z,-0.10
2023-03-06T00:25:30.872Z,-0.10
2023-03-06T00:27:58.218Z,-0.10
2023-03-06T00:30:25.857Z,-0.10
2023-03-06T00:32:54.958Z,0.00
2023-03-06T00:35:22.376Z,0.00
2023-03-06T00:37:49.891Z,0.00
2023-03-06T00:40:19.831Z,-0.10
2023-03-06T00:42:48.330Z,0.00
2023-03-06T00:45:16.139Z,-0.10
2023-03-06T00:47:43.715Z,-0.10
2023-03-06T00:50:11.631Z,-0.10
2023-03-06T00:52:39.173Z,0.00
2023-03-06T00:55:07.157Z,0.00
2023-03-06T00:57:34.956Z,0.00
2023-03-06T01:00:02.958Z,0.00
2023-03-06T01:02:30.210Z,0.00
2023-03-06T01:04:57.803Z,0.00
2023-03-06T01:07:27.492Z,0.00
2023-03-06T01:09:54.864Z,0.00
2023-03-06T01:12:23.465Z,-0.10
2023-03-06T01:14:52.010Z,-0.10
2023-03-06T01:17:19.417Z,-0.10
2023-03-06T01:19:46.765Z,-0.20
2023-03-06T01:22:14.065Z,-0.10
2023-03-06T01:24:41.359Z,-0.20
2023-03-06T01:27:09.049Z,-0.20
2023-03-06T01:29:36.333Z,-0.20
2023-03-06T01:32:03.769Z,-0.30
2023-03-06T01:34:31.203Z,-0.30
2023-03-06T01:36:58.466Z,-0.40
2023-03-06T01:39:25.718Z,-0.30
2023-03-06T01:41:53.048Z,-0.30
2023-03-06T01:44:20.324Z,-0.40
2023-03-06T01:46:47.659Z,-0.40
2023-03-06T01:49:29.700Z,-0.50
2023-03-06T01:52:02.973Z,-0.50
2023-03-06T01:54:38.769Z,-0.50
2023-03-06T01:57:17.874Z,-0.50
2023-03-06T01:59:48.098Z,-0.40
2023-03-06T02:02:15.912Z,-0.50
2023-03-06T02:04:44.424Z,-0.50
2023-03-06T02:07:11.972Z,-0.50
2023-03-06T02:09:39.459Z,-0.50
2023-03-06T02:12:11.187Z,-0.50
2023-03-06T02:14:40.449Z,-0.60
2023-03-06T02:17:10.928Z,-0.60
2023-03-06T02:19:54.145Z,-0.60
2023-03-06T02:22:22.748Z,-0.70
2023-03-06T02:25:03.859Z,-0.70
2023-03-06T02:27:32.094Z,-0.70
2023-03-06T02:29:59.381Z,-0.70
2023-03-06T02:32:26.762Z,-0.70
2023-03-06T02:34:58.115Z,-0.70
2023-03-06T02:37:28.331Z,-0.70
2023-03-06T02:40:08.866Z,-0.80
2023-03-06T02:42:36.382Z,-0.80
2023-03-06T02:45:07.252Z,-0.70
2023-03-06T02:47:34.555Z,-0.70
2023-03-06T02:50:02.354Z,-0.70
2023-03-06T02:52:29.709Z,-0.70
2023-03-06T02:54:56.923Z,-0.80
2023-03-06T02:57:24.154Z,-0.70
2023-03-06T02:59:51.458Z,-0.80
2023-03-06T03:02:18.729Z,-0.70
2023-03-06T03:04:46.009Z,-0.70
2023-03-06T03:07:13.361Z,-0.70
2023-03-06T03:09:40.640Z,-0.70
2023-03-06T03:12:08.675Z,-0.70
2023-03-06T03:14:36.401Z,-0.70
2023-03-06T03:17:03.842Z,-0.60
2023-03-06T03:19:31.156Z,-0.60
2023-03-06T03:21:58.694Z,-0.60
2023-03-06T03:24:26.343Z,-0.60
2023-03-06T03:26:53.824Z,-0.60
2023-03-06T03:29:21.269Z,-0.50
2023-03-06T03:31:48.884Z,-0.50
2023-03-06T03:34:19.225Z,-0.50
2023-03-06T03:36:46.846Z,-0.50
2023-03-06T03:39:14.176Z,-0.50
2023-03-06T03:41:41.874Z,-0.50
2023-03-06T03:44:10.051Z,-0.50
2023-03-06T03:46:37.381Z,-0.50
2023-03-06T03:49:05.489Z,-0.50
2023-03-06T03:51:33.336Z,-0.50
2023-03-06T03:54:00.688Z,-0.50
2023-03-06T03:56:27.970Z,-0.50
2023-03-06T03:58:55.294Z,-0.50
2023-03-06T04:01:22.663Z,-0.50
2023-03-06T04:03:50.022Z,-0.50
2023-03-06T04:06:18.240Z,-0.50
2023-03-06T04:08:45.813Z,-0.50
2023-03-06T04:11:13.493Z,-0.60
2023-03-06T04:13:40.785Z,-0.60
2023-03-06T04:16:08.272Z,-0.60
2023-03-06T04:18:35.692Z,-0.60
2023-03-06T04:21:03.081Z,-0.60
2023-03-06T04:23:30.397Z,-0.40
2023-03-06T04:25:57.858Z,-0.40
2023-03-06T04:28:25.263Z,-0.40
2023-03-06T04:30:52.790Z,-0.30
2023-03-06T04:33:20.269Z,-0.30
2023-03-06T04:35:47.748Z,-0.20
2023-03-06T04:38:15.239Z,-0.30
2023-03-06T04:40:44.552Z,-0.30
2023-03-06T04:43:12.537Z,-0.20
2023-03-06T04:45:39.959Z,-0.20
2023-03-06T04:48:07.650Z,-0.20
2023-03-06T04:50:35.126Z,-0.20
2023-03-06T04:53:03.774Z,-0.20
2023-03-06T04:55:31.674Z,-0.20
2023-03-06T04:57:59.356Z,-0.20
2023-03-06T05:00:32.193Z,-0.20
2023-03-06T05:03:01.230Z,-0.10
2023-03-06T05:05:28.707Z,-0.10
2023-03-06T05:07:56.374Z,-0.10
2023-03-06T05:10:23.930Z,-0.10
2023-03-06T05:12:53.625Z,-0.10
2023-03-06T05:15:21.059Z,-0.10
2023-03-06T05:17:48.436Z,-0.10
2023-03-06T05:20:17.744Z,0.00
2023-03-06T05:22:45.575Z,0.10
2023-03-06T05:25:13.272Z,0.10
2023-03-06T05:27:41.845Z,0.00
2023-03-06T05:30:13.260Z,0.00
2023-03-06T05:32:40.534Z,0.10
2023-03-06T05:35:08.437Z,0.20
2023-03-06T05:37:35.971Z,0.20
2023-03-06T05:40:06.911Z,0.20
2023-03-06T05:42:34.289Z,0.20
2023-03-06T05:45:03.268Z,0.20
2023-03-06T05:47:31.115Z,0.20
2023-03-06T05:49:59.162Z,0.30
2023-03-06T05:52:26.688Z,0.30
2023-03-06T05:54:55.280Z,0.40
2023-03-06T05:57:24.212Z,0.40
2023-03-06T05:59:51.910Z,0.40
2023-03-06T06:02:19.938Z,0.50
2023-03-06T06:04:47.570Z,0.50
2023-03-06T06:07:17.067Z,0.60
2023-03-06T06:09:45.851Z,0.60
2023-03-06T06:12:14.191Z,0.60
2023-03-06T06:14:41.655Z,0.60
2023-03-06T06:17:09.533Z,0.60
2023-03-06T06:19:36.758Z,0.60
2023-03-06T06:22:04.419Z,0.70
2023-03-06T06:24:32.546Z,0.80
2023-03-06T06:27:03.402Z,0.90
2023-03-06T06:29:31.686Z,0.90
2023-03-06T06:31:59.859Z,1.00
2023-03-06T06:34:28.433Z,1.00
2023-03-06T06:36:56.189Z,1.20
2023-03-06T06:39:24.886Z,1.30
2023-03-06T06:42:09.509Z,1.30
2023-03-06T06:44:41.243Z,1.40
2023-03-06T06:47:22.434Z,1.60
2023-03-06T06:49:53.730Z,1.60
2023-03-06T06:52:21.821Z,1.70
2023-03-06T06:54:49.283Z,1.90
2023-03-06T06:57:17.148Z,2.00
2023-03-06T06:59:44.679Z,2.10
2023-03-06T07:02:13.909Z,2.20
2023-03-06T07:04:56.141Z,2.30
2023-03-06T07:07:28.677Z,2.30
2023-03-06T07:09:56.538Z,2.40
2023-03-06T07:12:23.828Z,2.50
2023-03-06T07:14:51.144Z,2.50
2023-03-06T07:17:18.438Z,2.60
2023-03-06T07:19:45.806Z,2.60
2023-03-06T07:22:13.211Z,2.60
2023-03-06T07:24:40.658Z,2.70
2023-03-06T07:27:07.933Z,2.70
2023-03-06T07:29:35.554Z,2.80
2023-03-06T07:32:02.908Z,2.80
2023-03-06T07:34:30.252Z,2.90
2023-03-06T07:36:57.911Z,2.90
2023-03-06T07:39:25.119Z,3.00
2023-03-06T07:41:52.621Z,3.00
2023-03-06T07:44:19.887Z,3.10
2023-03-06T07:46:47.163Z,3.20
2023-03-06T07:49:14.845Z,3.20
2023-03-06T07:51:42.058Z,3.30
2023-03-06T07:54:09.378Z,3.30
2023-03-06T07:56:37.260Z,3.40
2023-03-06T07:59:04.577Z,3.50
2023-03-06T08:01:31.924Z,3.50
2023-03-06T08:04:01.383Z,3.60
2023-03-06T08:06:28.748Z,3.70
2023-03-06T08:08:58.215Z,3.70
2023-03-06T08:11:28.044Z,3.70
2023-03-06T08:13:56.072Z,3.80
2023-03-06T08:16:26.866Z,3.90
2023-03-06T08:18:54.945Z,3.90
2023-03-06T08:21:24.876Z,3.90
2023-03-06T08:23:52.921Z,4.00
2023-03-06T08:26:23.350Z,4.10
2023-03-06T08:28:52.554Z,4.10
2023-03-06T08:31:33.075Z,4.20
2023-03-06T08:34:03.635Z,4.30
2023-03-06T08:36:31.314Z,4.50
2023-03-06T08:38:59.690Z,4.60
2023-03-06T08:41:27.747Z,4.60
2023-03-06T08:43:55.407Z,4.70
2023-03-06T08:46:25.127Z,4.70
2023-03-06T08:48:52.582Z,4.80
2023-03-06T08:51:21.586Z,5.00
2023-03-06T08:53:49.037Z,5.00
2023-03-06T08:56:20.570Z,4.90
2023-03-06T08:58:48.732Z,5.00
2023-03-06T09:01:37.005Z,5.00
2023-03-06T09:04:10.994Z,5.00
2023-03-06T09:06:40.827Z,5.20
2023-03-06T09:09:08.984Z,5.30
2023-03-06T09:11:36.756Z,5.40
2023-03-06T09:14:05.249Z,5.60
2023-03-06T09:16:33.619Z,5.80
2023-03-06T09:19:00.935Z,6.10
2023-03-06T09:21:28.885Z,6.20
2023-03-06T09:23:56.608Z,6.70
2023-03-06T09:26:32.866Z,6.80
2023-03-06T09:29:08.188Z,6.90
2023-03-06T09:31:35.814Z,7.00
2023-03-06T09:34:03.103Z,7.00
2023-03-06T09:36:30.625Z,7.00
2023-03-06T09:38:57.892Z,7.00
2023-03-06T09:41:37.741Z,7.10
2023-03-06T09:44:09.371Z,7.10
2023-03-06T09:47:01.156Z,6.90
2023-03-06T09:49:46.962Z,6.80
2023-03-06T09:52:33.353Z,6.80
2023-03-06T09:55:19.205Z,7.00
2023-03-06T09:58:18.027Z,7.20
2023-03-06T10:01:01.142Z,7.70
2023-03-06T10:03:38.690Z,8.30
2023-03-06T10:06:15.396Z,8.80
2023-03-06T10:09:01.510Z,9.10
2023-03-06T10:11:36.229Z,9.00
2023-03-06T10:14:12.503Z,9.30
2023-03-06T10:16:40.978Z,8.70
2023-03-06T10:19:15.928Z,8.70
2023-03-06T10:21:51.766Z,9.00
2023-03-06T10:24:50.164Z,8.80
2023-03-06T10:27:32.157Z,8.30
2023-03-06T10:30:18.739Z,7.60
2023-03-06T10:32:59.878Z,7.40
2023-03-06T10:35:35.101Z,7.20
2023-03-06T10:38:18.291Z,7.20
2023-03-06T10:41:09.076Z,7.40
2023-03-06T10:43:38.162Z,7.40
2023-03-06T10:46:07.598Z,7.50
2023-03-06T10:48:36.989Z,7.40
2023-03-06T10:51:19.896Z,7.40
2023-03-06T10:54:01.822Z,7.30
2023-03-06T10:56:30.203Z,7.20
2023-03-06T10:59:18.862Z,7.60
2023-03-06T11:01:51.986Z,8.00
2023-03-06T11:04:34.836Z,7.80
2023-03-06T11:07:08.487Z,7.50
2023-03-06T11:09:36.343Z,7.00
2023-03-06T11:12:34.610Z,6.90
2023-03-06T11:15:14.401Z,6.80
2023-03-06T11:18:05.263Z,6.80
2023-03-06T11:20:52.117Z,7.10
2023-03-06T11:23:29.790Z,7.30
2023-03-06T11:26:15.896Z,7.40
2023-03-06T11:28:50.078Z,7.20
2023-03-06T11:31:22.021Z,7.20
2023-03-06T11:34:14.225Z,7.10
2023-03-06T11:37:10.544Z,7.10
2023-03-06T11:39:49.897Z,7.20
2023-03-06T11:42:27.699Z,7.20
2023-03-06T11:45:02.852Z,7.20
2023-03-06T11:47:39.379Z,7.40
2023-03-06T11:50:18.288Z,7.70
2023-03-06T11:53:01.771Z,8.10
2023-03-06T11:55:44.378Z,8.20
2023-03-06T11:58:36.512Z,7.80
2023-03-06T12:01:08.398Z,8.00
2023-03-06T12:04:15.500Z,7.80
2023-03-06T12:06:53.489Z,7.50
2023-03-06T12:09:46.058Z,7.20
2023-03-06T12:12:25.047Z,7.00
2023-03-06T12:15:29.165Z,6.80
2023-03-06T12:18:22.153Z,6.70
2023-03-06T12:21:00.800Z,6.60
2023-03-06T12:23:51.131Z,6.60
2023-03-06T12:26:50.526Z,6.40
2023-03-06T12:29:42.099Z,6.30
2023-03-06T12:32:29.485Z,6.30
2023-03-06T12:34:56.905Z,6.40
2023-03-06T12:37:36.482Z,6.40
2023-03-06T12:40:24.016Z,6.30
2023-03-06T12:43:33.549Z,6.40
2023-03-06T12:46:25.757Z,6.30
2023-03-06T12:49:06.338Z,6.40
2023-03-06T12:51:34.885Z,6.40
2023-03-06T12:54:03.928Z,6.60
2023-03-06T12:56:32.877Z,6.60
2023-03-06T12:59:03.712Z,6.60
2023-03-06T13:02:02.406Z,6.50
2023-03-06T13:04:44.210Z,6.50
2023-03-06T13:07:49.665Z,6.60
2023-03-06T13:10:43.903Z,6.70
2023-03-06T13:13:34.355Z,6.80
2023-03-06T13:16:04.464Z,6.80
2023-03-06T13:18:34.577Z,6.80
2023-03-06T13:21:04.694Z,6.60
2023-03-06T13:23:39.197Z,6.60
2023-03-06T13:26:11.981Z,6.50
2023-03-06T13:28:47.874Z,6.40
2023-03-06T13:31:45.450Z,6.40
2023-03-06T13:34:33.752Z,6.20
2023-03-06T13:37:24.318Z,6.10
2023-03-06T13:39:59.665Z,6.00
2023-03-06T13:42:36.995Z,6.00
2023-03-06T13:45:45.170Z,6.00
2023-03-06T13:48:45.585Z,5.90
2023-03-06T13:51:24.433Z,5.80
2023-03-06T13:54:12.737Z,5.80
2023-03-06T13:56:51.604Z,5.70
2023-03-06T13:59:46.272Z,5.70
2023-03-06T14:02:40.031Z,5.70
2023-03-06T14:05:16.385Z,5.80
2023-03-06T14:07:47.060Z,5.80
2023-03-06T14:10:14.301Z,5.70
2023-03-06T14:12:52.302Z,5.70
2023-03-06T14:15:23.704Z,5.60
2023-03-06T14:18:01.179Z,5.60
2023-03-06T14:20:40.670Z,5.60
2023-03-06T14:23:42.747Z,5.60
2023-03-06T14:26:17.929Z,5.70
2023-03-06T14:29:00.926Z,5.70
2023-03-06T14:31:33.760Z,5.60
2023-03-06T14:34:05.151Z,5.60
2023-03-06T14:36:43.595Z,5.60
2023-03-06T14:39:21.134Z,5.60
2023-03-06T14:41:48.924Z,5.60
2023-03-06T14:44:21.776Z,5.70
2023-03-06T14:46:55.417Z,5.70
2023-03-06T14:49:26.985Z,5.70
2023-03-06T14:51:56.349Z,5.70
2023-03-06T14:54:37.515Z,5.60
2023-03-06T14:57:12.473Z,5.50
2023-03-06T14:59:51.644Z,5.50
2023-03-06T15:02:23.071Z,5.40
2023-03-06T15:04:59.509Z,5.40
2023-03-06T15:07:30.859Z,5.30
2023-03-06T15:09:59.441Z,5.20
2023-03-06T15:12:35.622Z,5.30
2023-03-06T15:15:10.545Z,5.30
2023-03-06T15:17:46.645Z,5.30
2023-03-06T15:20:38.633Z,5.30
2023-03-06T15:23:21.231Z,5.30
2023-03-06T15:26:00.295Z,5.30
2023-03-06T15:28:37.452Z,5.20
2023-03-06T15:31:10.865Z,5.20
2023-03-06T15:33:38.453Z,5.10
2023-03-06T15:36:07.262Z,5.10
2023-03-06T15:38:43.452Z,5.10
2023-03-06T15:41:24.232Z,5.00
2023-03-06T15:43:51.725Z,5.00
2023-03-06T15:46:20.611Z,5.00
2023-03-06T15:49:01.152Z,5.00
2023-03-06T15:51:30.969Z,5.00
2023-03-06T15:54:09.870Z,5.00
2023-03-06T15:56:42.163Z,4.90
2023-03-06T15:59:25.305Z,5.00
2023-03-06T16:01:52.987Z,4.90
2023-03-06T16:04:20.603Z,4.90
2023-03-06T16:06:48.398Z,4.90
2023-03-06T16:09:15.824Z,4.90
2023-03-06T16:11:45.305Z,4.90
2023-03-06T16:14:23.802Z,4.80
2023-03-06T16:16:54.834Z,4.80
2023-03-06T16:19:26.248Z,4.80
2023-03-06T16:21:57.963Z,4.90
2023-03-06T16:24:26.539Z,4.80
2023-03-06T16:26:55.279Z,4.80
2023-03-06T16:29:25.429Z,4.70
2023-03-06T16:31:53.103Z,4.60
2023-03-06T16:34:20.397Z,4.50
2023-03-06T16:36:49.414Z,4.40
2023-03-06T16:39:19.467Z,4.20
2023-03-06T16:41:47.678Z,4.20
2023-03-06T16:44:15.435Z,4.10
2023-03-06T16:46:48.086Z,4.10
2023-03-06T16:49:20.702Z,4.10
2023-03-06T16:51:48.373Z,4.00
2023-03-06T16:54:16.107Z,3.90
2023-03-06T16:56:44.585Z,3.80
2023-03-06T16:59:12.910Z,3.80
2023-03-06T17:01:43.216Z,3.70
2023-03-06T17:04:11.141Z,3.70
2023-03-06T17:06:38.650Z,3.60
2023-03-06T17:09:06.249Z,3.70
2023-03-06T17:11:33.728Z,3.70
2023-03-06T17:14:02.119Z,3.60
2023-03-06T17:16:29.403Z,3.60
2023-03-06T17:18:58.434Z,3.50
2023-03-06T17:21:27.166Z,3.50
2023-03-06T17:23:54.505Z,3.40
2023-03-06T17:26:21.790Z,3.30
2023-03-06T17:28:49.280Z,3.30
2023-03-06T17:31:19.648Z,3.20
2023-03-06T17:33:48.155Z,3.10
2023-03-06T17:36:16.882Z,3.10
2023-03-06T17:38:44.258Z,3.00
2023-03-06T17:41:13.491Z,3.00
2023-03-06T17:43:41.545Z,3.00
2023-03-06T17:46:11.449Z,3.00
2023-03-06T17:48:39.646Z,3.00
2023-03-06T17:51:07.758Z,3.00
2023-03-06T17:53:35.540Z,2.90
2023-03-06T17:56:08.412Z,2.90
2023-03-06T17:58:36.115Z,2.90
2023-03-06T18:01:19.831Z,2.90
2023-03-06T18:03:50.369Z,2.90
2023-03-06T18:06:19.491Z,2.80
2023-03-06T18:08:47.565Z,2.80
2023-03-06T18:11:15.431Z,2.80
2023-03-06T18:13:46.662Z,2.70
2023-03-06T18:16:16.863Z,2.70
2023-03-06T18:18:44.317Z,2.70
2023-03-06T18:21:14.488Z,2.70
2023-03-06T18:23:41.993Z,2.80
2023-03-06T18:26:24.152Z,2.80
2023-03-06T18:28:59.291Z,2.80
2023-03-06T18:31:34.811Z,2.70
2023-03-06T18:34:05.356Z,2.60
2023-03-06T18:36:33.810Z,2.60
2023-03-06T18:39:04.067Z,2.50
2023-03-06T18:41:32.052Z,2.50
2023-03-06T18:44:01.141Z,2.60
2023-03-06T18:46:35.023Z,2.50
2023-03-06T18:49:03.104Z,2.50
2023-03-06T18:51:31.372Z,2.40
2023-03-06T18:54:02.934Z,2.30
2023-03-06T18:56:30.667Z,2.20
2023-03-06T18:59:02.747Z,2.20
2023-03-06T19:01:31.497Z,2.20
2023-03-06T19:04:03.660Z,2.20
2023-03-06T19:06:31.351Z,2.10
2023-03-06T19:09:02.508Z,2.00
2023-03-06T19:11:30.237Z,1.90
2023-03-06T19:13:57.671Z,1.90
2023-03-06T19:16:28.020Z,1.80
2023-03-06T19:18:56.335Z,1.70
2023-03-06T19:21:26.507Z,1.70
2023-03-06T19:23:54.942Z,1.70
2023-03-06T19:26:22.873Z,1.50
2023-03-06T19:28:50.812Z,1.40
2023-03-06T19:31:20.848Z,1.40
2023-03-06T19:33:49.597Z,1.30
2023-03-06T19:36:19.018Z,1.20
2023-03-06T19:38:50.612Z,1.20
2023-03-06T19:41:18.133Z,1.20
2023-03-06T19:43:49.392Z,1.20
2023-03-06T19:46:16.954Z,1.10
2023-03-06T19:48:44.303Z,1.10
2023-03-06T19:51:12.008Z,1.00
2023-03-06T19:53:40.131Z,1.00
2023-03-06T19:56:15.063Z,1.00
2023-03-06T19:58:42.900Z,0.90
2023-03-06T20:01:28.998Z,0.90
2023-03-06T20:04:00.705Z,1.00
2023-03-06T20:06:30.511Z,0.90
2023-03-06T20:08:57.786Z,0.90
2023-03-06T20:11:27.560Z,1.00
2023-03-06T20:13:56.631Z,1.00
2023-03-06T20:16:23.919Z,1.00
2023-03-06T20:18:51.430Z,1.00
2023-03-06T20:21:19.774Z,1.00
2023-03-06T20:23:47.164Z,1.00
2023-03-06T20:26:15.566Z,1.00
2023-03-06T20:28:43.136Z,1.00
2023-03-06T20:31:13.659Z,0.90
2023-03-06T20:33:41.009Z,0.90
2023-03-06T20:36:23.377Z,1.00
2023-03-06T20:38:51.220Z,1.10
2023-03-06T20:41:21.148Z,1.10
2023-03-06T20:43:49.101Z,1.10
2023-03-06T20:46:17.396Z,1.20
2023-03-06T20:48:47.274Z,1.20
2023-03-06T20:51:14.503Z,1.20
2023-03-06T20:53:41.877Z,1.30
2023-03-06T20:56:16.800Z,1.30
2023-03-06T20:58:44.953Z,1.40
2023-03-06T21:01:26.518Z,1.30
2023-03-06T21:03:57.003Z,1.30
2023-03-06T21:06:25.781Z,1.20
2023-03-06T21:08:53.137Z,1.20
2023-03-06T21:11:20.427Z,1.10
2023-03-06T21:13:47.712Z,1.10
2023-03-06T21:16:18.386Z,1.10
2023-03-06T21:18:46.583Z,1.10
2023-03-06T21:21:22.370Z,1.10
2023-03-06T21:23:50.401Z,1.10
2023-03-06T21:26:20.170Z,1.10
2023-03-06T21:28:48.059Z,1.20
2023-03-06T21:31:17.031Z,1.30
2023-03-06T21:33:47.283Z,1.30
2023-03-06T21:36:14.934Z,1.40
2023-03-06T21:38:42.322Z,1.50
2023-03-06T21:41:12.345Z,1.70
2023-03-06T21:43:40.023Z,1.70
2023-03-06T21:46:07.690Z,1.70
2023-03-06T21:48:35.186Z,1.70
2023-03-06T21:51:06.772Z,1.90
2023-03-06T21:53:34.410Z,2.00
2023-03-06T21:56:02.685Z,2.10
2023-03-06T21:58:30.578Z,2.10
2023-03-06T22:00:58.263Z,2.00
2023-03-06T22:03:25.990Z,2.10
2023-03-06T22:05:53.416Z,2.10
2023-03-06T22:08:21.907Z,2.10
2023-03-06T22:10:49.434Z,2.10
2023-03-06T22:13:16.968Z,2.20
2023-03-06T22:15:55.509Z,2.20
2023-03-06T22:18:23.039Z,2.30
2023-03-06T22:20:50.389Z,2.30
2023-03-06T22:23:17.806Z,2.50
2023-03-06T22:25:45.073Z,2.50
2023-03-06T22:28:13.448Z,2.50
2023-03-06T22:30:41.426Z,2.60
2023-03-06T22:33:08.661Z,2.60
2023-03-06T22:35:36.112Z,2.60
2023-03-06T22:38:04.815Z,2.60
2023-03-06T22:40:33.084Z,2.70
2023-03-06T22:43:00.398Z,2.70
2023-03-06T22:45:27.769Z,2.70
2023-03-06T22:48:02.364Z,2.70
2023-03-06T22:50:36.634Z,2.70
2023-03-06T22:53:03.861Z,2.60
2023-03-06T22:55:31.196Z,2.60
2023-03-06T22:57:59.041Z,2.50
2023-03-06T23:00:26.527Z,2.50
2023-03-06T23:02:54.216Z,2.40
2023-03-06T23:05:22.204Z,2.50
2023-03-06T23:07:49.664Z,2.60
2023-03-06T23:10:18.280Z,2.70
2023-03-06T23:12:45.782Z,2.70
2023-03-06T23:15:13.266Z,2.60
2023-03-06T23:17:40.573Z,2.50
2023-03-06T23:20:10.324Z,2.40
2023-03-06T23:22:37.769Z,2.40
2023-03-06T23:25:06.274Z,2.30
2023-03-06T23:27:35.528Z,2.30
2023-03-06T23:30:04.626Z,2.20
2023-03-06T23:32:33.890Z,2.20
2023-03-06T23:35:04.987Z,2.20
2023-03-06T23:37:32.218Z,2.20
2023-03-06T23:39:59.669Z,2.20
2023-03-06T23:42:27.138Z,2.20
2023-03-06T23:44:54.479Z,2.10
2023-03-06T23:47:21.827Z,2.10
2023-03-06T23:49:49.114Z,2.10
2023-03-06T23:52:16.580Z,2.10
2023-03-06T23:54:44.140Z,2.10
2023-03-06T23:57:11.475Z,2.10
2023-03-06T23:59:38.906Z,2.00
